EAGO2: Mountain Fork Riv, Eagletown,

Data processed at Fri Mar 09 2018 23:38


All information presented herein is the property of the government of the United States of America and may be revised or deleted at any time without prior notice.
Dissemination of this information without the expressed written consent of the Public Affairs Office, Tulsa District U.S. Army Corps of Engineers is strictly prohibited.
These data are gathered electronically and, as presented, have not undergone any form of quality control. These data are not guaranteed to be valid or correct.
Go to home page.
Go to station list.

Upstream stations:

Downstream station:
Previous Day
Next Day
Current Day
    
SHEF ID:       EAGO2     Mountain Fork near Eagletown, OK
STATION TYPE:  

               PRECIP     STAGE  RIV-FLOW  BAT-LOAD
                   in        ft       cfs      volt
              Ccp-Rev   Ccp-Rev   Ccp-Rev   Ccp-Rev
(US/Central)
03/07 00:00      ----      4.82      3003     13.05
03/07 01:00      ----      4.78      2961     13.05
03/07 02:00      ----      4.68      2858     13.05
03/07 03:00      ----      4.71      2888     13.05
03/07 04:00      ----      4.71      2888     12.97
03/07 05:00      ----      4.81      2993     12.97
03/07 06:00      ----      5.41      3648     12.97
03/07 07:00      ----      6.54      5023     12.97
03/07 08:00      ----      7.06      5714     12.97
03/07 09:00      ----      7.27      5994     13.05
03/07 10:00      ----      7.34      6087     13.05
03/07 11:00      ----      7.39      6153     13.13
03/07 12:00      ----      7.40      6167     14.16
03/07 13:00      ----      7.38      6140     14.00
03/07 14:00      ----      7.37      6127     13.92
03/07 15:00      ----      7.35      6100     13.84
03/07 16:00      ----      7.40      6167     13.76
03/07 17:00      ----      7.35      6100     13.68
03/07 18:00      ----      7.35      6100     13.53
03/07 19:00      ----      7.39      6153     13.21
03/07 20:00      ----      7.36      6113     13.13
03/07 21:00      ----      7.37      6127     13.13
03/07 22:00      ----      7.39      6153     13.05
03/07 23:00      ----      7.35      6100     13.05